sensor_id;sensor_type;location;lat;lon;timestamp;pressure;altitude;pressure_sealevel;temperature;humidity
18201;BME280;9226;47.858;9.594;2023-05-02T00:00:37;95354.56;;;10.44;89.81
18201;BME280;9226;47.858;9.594;2023-05-02T00:03:03;95350.47;;;10.40;90.11
18201;BME280;9226;47.858;9.594;2023-05-02T00:05:30;95355.06;;;10.38;90.15
18201;BME280;9226;47.858;9.594;2023-05-02T00:07:55;95351.09;;;10.32;90.42
18201;BME280;9226;47.858;9.594;2023-05-02T00:10:21;95348.91;;;10.38;90.05
18201;BME280;9226;47.858;9.594;2023-05-02T00:12:46;95343.38;;;10.29;90.52
18201;BME280;9226;47.858;9.594;2023-05-02T00:15:12;95343.25;;;10.31;90.67
18201;BME280;9226;47.858;9.594;2023-05-02T00:17:40;95341.09;;;10.36;90.05
18201;BME280;9226;47.858;9.594;2023-05-02T00:20:08;95344.59;;;10.25;91.39
18201;BME280;9226;47.858;9.594;2023-05-02T00:22:34;95344.09;;;10.31;90.63
18201;BME280;9226;47.858;9.594;2023-05-02T00:25:00;95343.88;;;10.35;90.50
18201;BME280;9226;47.858;9.594;2023-05-02T00:27:25;95345.03;;;10.30;90.80
18201;BME280;9226;47.858;9.594;2023-05-02T00:29:50;95344.34;;;10.28;90.93
18201;BME280;9226;47.858;9.594;2023-05-02T00:32:16;95346.03;;;10.29;90.85
18201;BME280;9226;47.858;9.594;2023-05-02T00:34:42;95343.13;;;10.32;90.65
18201;BME280;9226;47.858;9.594;2023-05-02T00:37:07;95341.56;;;10.30;90.66
18201;BME280;9226;47.858;9.594;2023-05-02T00:39:33;95344.91;;;10.32;90.90
18201;BME280;9226;47.858;9.594;2023-05-02T00:41:59;95342.63;;;10.27;91.12
18201;BME280;9226;47.858;9.594;2023-05-02T00:44:25;95333.41;;;10.22;91.59
18201;BME280;9226;47.858;9.594;2023-05-02T00:46:51;95332.28;;;10.24;90.87
18201;BME280;9226;47.858;9.594;2023-05-02T00:49:17;95332.91;;;10.28;90.84
18201;BME280;9226;47.858;9.594;2023-05-02T00:51:43;95333.75;;;10.17;91.46
18201;BME280;9226;47.858;9.594;2023-05-02T00:54:09;95338.84;;;10.09;91.87
18201;BME280;9226;47.858;9.594;2023-05-02T00:56:36;95333.88;;;10.16;91.27
18201;BME280;9226;47.858;9.594;2023-05-02T00:59:02;95336.16;;;10.20;90.87
18201;BME280;9226;47.858;9.594;2023-05-02T01:10:22;95344.16;;;10.09;91.25
18201;BME280;9226;47.858;9.594;2023-05-02T01:13:02;95338.31;;;10.15;91.00
18201;BME280;9226;47.858;9.594;2023-05-02T01:15:31;95338.31;;;10.26;90.28
18201;BME280;9226;47.858;9.594;2023-05-02T01:17:59;95343.00;;;10.23;90.91
18201;BME280;9226;47.858;9.594;2023-05-02T01:20:27;95343.38;;;10.29;90.41
18201;BME280;9226;47.858;9.594;2023-05-02T01:22:57;95341.47;;;10.20;91.31
18201;BME280;9226;47.858;9.594;2023-05-02T01:25:30;95348.59;;;10.08;92.91
18201;BME280;9226;47.858;9.594;2023-05-02T01:30:42;95349.56;;;10.19;92.17
18201;BME280;9226;47.858;9.594;2023-05-02T01:33:13;95346.97;;;10.28;90.97
18201;BME280;9226;47.858;9.594;2023-05-02T01:35:40;95358.09;;;10.34;90.85
18201;BME280;9226;47.858;9.594;2023-05-02T01:38:07;95356.38;;;10.32;91.03
18201;BME280;9226;47.858;9.594;2023-05-02T01:40:33;95355.44;;;10.34;91.02
18201;BME280;9226;47.858;9.594;2023-05-02T01:43:01;95355.63;;;10.42;90.64
18201;BME280;9226;47.858;9.594;2023-05-02T01:45:29;95359.03;;;10.44;90.90
18201;BME280;9226;47.858;9.594;2023-05-02T01:47:57;95357.66;;;10.49;90.53
18201;BME280;9226;47.858;9.594;2023-05-02T01:50:25;95365.38;;;10.53;90.32
18201;BME280;9226;47.858;9.594;2023-05-02T01:52:52;95361.38;;;10.58;89.77
18201;BME280;9226;47.858;9.594;2023-05-02T01:55:19;95358.53;;;10.50;91.03
18201;BME280;9226;47.858;9.594;2023-05-02T01:57:46;95353.81;;;10.54;90.78
18201;BME280;9226;47.858;9.594;2023-05-02T02:00:12;95357.03;;;10.57;90.52
18201;BME280;9226;47.858;9.594;2023-05-02T02:02:40;95360.69;;;10.45;91.27
18201;BME280;9226;47.858;9.594;2023-05-02T02:05:07;95365.44;;;10.62;90.00
18201;BME280;9226;47.858;9.594;2023-05-02T02:07:33;95362.78;;;10.62;90.27
18201;BME280;9226;47.858;9.594;2023-05-02T02:09:59;95360.63;;;10.67;90.03
18201;BME280;9226;47.858;9.594;2023-05-02T02:13:01;95359.19;;;10.63;90.10
18201;BME280;9226;47.858;9.594;2023-05-02T02:15:31;95364.88;;;10.80;88.77
18201;BME280;9226;47.858;9.594;2023-05-02T02:18:10;95371.06;;;10.80;88.68
18201;BME280;9226;47.858;9.594;2023-05-02T02:20:36;95370.94;;;10.82;88.83
18201;BME280;9226;47.858;9.594;2023-05-02T02:23:05;95377.06;;;10.82;88.54
18201;BME280;9226;47.858;9.594;2023-05-02T02:25:33;95376.94;;;10.84;88.84
18201;BME280;9226;47.858;9.594;2023-05-02T02:27:59;95370.06;;;10.81;88.74
18201;BME280;9226;47.858;9.594;2023-05-02T02:30:25;95373.97;;;10.77;88.66
18201;BME280;9226;47.858;9.594;2023-05-02T02:32:50;95372.00;;;10.79;88.13
18201;BME280;9226;47.858;9.594;2023-05-02T02:35:16;95371.44;;;10.76;88.37
18201;BME280;9226;47.858;9.594;2023-05-02T02:38:04;95373.16;;;10.65;88.72
18201;BME280;9226;47.858;9.594;2023-05-02T02:40:59;95381.59;;;10.71;88.54
18201;BME280;9226;47.858;9.594;2023-05-02T02:49:29;95376.69;;;10.55;90.03
18201;BME280;9226;47.858;9.594;2023-05-02T02:54:34;95383.94;;;10.53;90.44
18201;BME280;9226;47.858;9.594;2023-05-02T02:57:09;95384.19;;;10.49;91.30
18201;BME280;9226;47.858;9.594;2023-05-02T02:59:40;95385.88;;;10.50;91.30
18201;BME280;9226;47.858;9.594;2023-05-02T03:02:11;95392.53;;;10.45;92.33
18201;BME280;9226;47.858;9.594;2023-05-02T03:04:43;95390.59;;;10.47;91.82
18201;BME280;9226;47.858;9.594;2023-05-02T03:07:10;95389.38;;;10.51;91.85
18201;BME280;9226;47.858;9.594;2023-05-02T03:09:43;95391.06;;;10.52;91.80
18201;BME280;9226;47.858;9.594;2023-05-02T03:12:09;95388.41;;;10.52;91.62
18201;BME280;9226;47.858;9.594;2023-05-02T03:14:35;95394.56;;;10.53;91.59
18201;BME280;9226;47.858;9.594;2023-05-02T03:17:02;95392.34;;;10.58;91.35
18201;BME280;9226;47.858;9.594;2023-05-02T03:19:27;95397.16;;;10.64;90.99
18201;BME280;9226;47.858;9.594;2023-05-02T03:21:53;95406.44;;;10.70;90.37
18201;BME280;9226;47.858;9.594;2023-05-02T03:24:18;95400.56;;;10.66;91.14
18201;BME280;9226;47.858;9.594;2023-05-02T03:26:43;95398.28;;;10.61;91.02
18201;BME280;9226;47.858;9.594;2023-05-02T03:29:09;95399.69;;;10.65;91.24
18201;BME280;9226;47.858;9.594;2023-05-02T03:31:34;95400.56;;;10.66;91.03
18201;BME280;9226;47.858;9.594;2023-05-02T03:34:00;95396.56;;;10.60;91.73
18201;BME280;9226;47.858;9.594;2023-05-02T03:36:25;95395.81;;;10.70;90.80
18201;BME280;9226;47.858;9.594;2023-05-02T03:38:51;95400.63;;;10.76;90.43
18201;BME280;9226;47.858;9.594;2023-05-02T03:41:17;95400.13;;;10.82;90.17
18201;BME280;9226;47.858;9.594;2023-05-02T03:43:42;95403.47;;;10.84;90.31
18201;BME280;9226;47.858;9.594;2023-05-02T03:46:08;95401.78;;;10.83;89.95
18201;BME280;9226;47.858;9.594;2023-05-02T03:48:35;95413.91;;;10.76;90.46
18201;BME280;9226;47.858;9.594;2023-05-02T03:51:02;95403.91;;;10.68;90.97
18201;BME280;9226;47.858;9.594;2023-05-02T03:53:28;95412.31;;;10.73;90.38
18201;BME280;9226;47.858;9.594;2023-05-02T03:55:54;95409.81;;;10.72;90.72
18201;BME280;9226;47.858;9.594;2023-05-02T03:58:20;95417.38;;;10.76;90.04
18201;BME280;9226;47.858;9.594;2023-05-02T04:00:46;95422.34;;;10.70;90.70
18201;BME280;9226;47.858;9.594;2023-05-02T04:03:11;95423.53;;;10.77;90.32
18201;BME280;9226;47.858;9.594;2023-05-02T04:05:36;95422.56;;;10.78;89.96
18201;BME280;9226;47.858;9.594;2023-05-02T04:08:02;95423.81;;;10.74;90.32
18201;BME280;9226;47.858;9.594;2023-05-02T04:10:27;95432.03;;;10.71;90.53
18201;BME280;9226;47.858;9.594;2023-05-02T04:12:53;95432.63;;;10.63;91.17
18201;BME280;9226;47.858;9.594;2023-05-02T04:15:18;95432.63;;;10.63;91.61
18201;BME280;9226;47.858;9.594;2023-05-02T04:17:44;95429.50;;;10.58;92.24
18201;BME280;9226;47.858;9.594;2023-05-02T04:20:11;95437.31;;;10.71;90.87
18201;BME280;9226;47.858;9.594;2023-05-02T04:22:36;95442.38;;;10.62;91.89
18201;BME280;9226;47.858;9.594;2023-05-02T04:25:04;95438.78;;;10.63;91.52
18201;BME280;9226;47.858;9.594;2023-05-02T04:27:30;95448.91;;;10.70;90.98
18201;BME280;9226;47.858;9.594;2023-05-02T04:29:56;95456.09;;;10.79;90.58
18201;BME280;9226;47.858;9.594;2023-05-02T04:32:22;95452.72;;;10.77;90.88
18201;BME280;9226;47.858;9.594;2023-05-02T04:34:48;95455.13;;;10.80;90.68
18201;BME280;9226;47.858;9.594;2023-05-02T04:37:13;95458.50;;;10.82;90.70
18201;BME280;9226;47.858;9.594;2023-05-02T04:39:39;95465.41;;;10.73;91.19
18201;BME280;9226;47.858;9.594;2023-05-02T04:42:04;95461.91;;;10.73;91.44
18201;BME280;9226;47.858;9.594;2023-05-02T04:44:30;95470.66;;;10.84;90.68
18201;BME280;9226;47.858;9.594;2023-05-02T04:46:55;95469.09;;;10.93;90.34
18201;BME280;9226;47.858;9.594;2023-05-02T04:49:20;95478.47;;;10.97;90.36
18201;BME280;9226;47.858;9.594;2023-05-02T04:51:46;95482.69;;;11.00;90.16
18201;BME280;9226;47.858;9.594;2023-05-02T04:54:11;95484.72;;;11.08;89.67
18201;BME280;9226;47.858;9.594;2023-05-02T04:56:37;95487.13;;;11.11;89.47
18201;BME280;9226;47.858;9.594;2023-05-02T04:59:02;95489.28;;;11.17;89.24
18201;BME280;9226;47.858;9.594;2023-05-02T05:01:28;95484.53;;;11.20;88.95
18201;BME280;9226;47.858;9.594;2023-05-02T05:03:54;95486.81;;;11.25;88.76
18201;BME280;9226;47.858;9.594;2023-05-02T05:06:20;95493.81;;;11.26;88.54
18201;BME280;9226;47.858;9.594;2023-05-02T05:08:45;95494.28;;;11.31;88.11
18201;BME280;9226;47.858;9.594;2023-05-02T05:11:11;95488.50;;;11.26;88.44
18201;BME280;9226;47.858;9.594;2023-05-02T05:13:37;95490.34;;;11.14;88.54
18201;BME280;9226;47.858;9.594;2023-05-02T05:16:03;95500.16;;;11.35;88.03
18201;BME280;9226;47.858;9.594;2023-05-02T05:18:29;95498.00;;;11.29;88.25
18201;BME280;9226;47.858;9.594;2023-05-02T05:20:54;95498.38;;;11.35;88.03
18201;BME280;9226;47.858;9.594;2023-05-02T05:23:19;95508.19;;;11.45;87.87
18201;BME280;9226;47.858;9.594;2023-05-02T05:25:45;95511.25;;;11.40;88.17
18201;BME280;9226;47.858;9.594;2023-05-02T05:28:10;95516.41;;;11.53;87.77
18201;BME280;9226;47.858;9.594;2023-05-02T05:30:36;95522.72;;;11.62;87.77
18201;BME280;9226;47.858;9.594;2023-05-02T05:33:02;95515.81;;;11.70;87.27
18201;BME280;9226;47.858;9.594;2023-05-02T05:35:27;95521.56;;;11.75;87.26
18201;BME280;9226;47.858;9.594;2023-05-02T05:37:53;95520.81;;;11.85;86.82
18201;BME280;9226;47.858;9.594;2023-05-02T05:40:18;95526.38;;;11.82;86.87
18201;BME280;9226;47.858;9.594;2023-05-02T05:42:45;95527.66;;;11.87;87.19
18201;BME280;9226;47.858;9.594;2023-05-02T05:45:10;95526.06;;;11.96;86.95
18201;BME280;9226;47.858;9.594;2023-05-02T05:47:36;95531.69;;;12.03;86.84
18201;BME280;9226;47.858;9.594;2023-05-02T05:50:01;95531.88;;;12.11;86.08
18201;BME280;9226;47.858;9.594;2023-05-02T05:52:27;95536.97;;;12.24;86.17
18201;BME280;9226;47.858;9.594;2023-05-02T05:54:53;95535.91;;;12.36;85.65
18201;BME280;9226;47.858;9.594;2023-05-02T05:57:20;95533.72;;;12.41;85.51
18201;BME280;9226;47.858;9.594;2023-05-02T05:59:45;95540.16;;;12.39;84.82
18201;BME280;9226;47.858;9.594;2023-05-02T06:02:11;95545.50;;;12.48;84.58
18201;BME280;9226;47.858;9.594;2023-05-02T06:04:36;95536.84;;;12.56;84.37
18201;BME280;9226;47.858;9.594;2023-05-02T06:07:02;95540.75;;;12.52;84.14
18201;BME280;9226;47.858;9.594;2023-05-02T06:09:27;95545.94;;;12.54;83.88
18201;BME280;9226;47.858;9.594;2023-05-02T06:11:52;95551.53;;;12.51;83.54
18201;BME280;9226;47.858;9.594;2023-05-02T06:14:18;95547.19;;;12.49;83.86
18201;BME280;9226;47.858;9.594;2023-05-02T06:16:43;95555.63;;;12.55;84.00
18201;BME280;9226;47.858;9.594;2023-05-02T06:19:09;95553.91;;;12.54;83.89
18201;BME280;9226;47.858;9.594;2023-05-02T06:21:37;95557.09;;;12.47;84.01
18201;BME280;9226;47.858;9.594;2023-05-02T06:24:03;95559.78;;;12.47;84.02
18201;BME280;9226;47.858;9.594;2023-05-02T06:26:37;95564.25;;;12.47;84.26
18201;BME280;9226;47.858;9.594;2023-05-02T06:29:02;95574.34;;;12.43;84.47
18201;BME280;9226;47.858;9.594;2023-05-02T06:31:28;95563.78;;;12.73;84.32
18201;BME280;9226;47.858;9.594;2023-05-02T06:33:53;95570.28;;;12.80;84.95
18201;BME280;9226;47.858;9.594;2023-05-02T06:36:19;95573.13;;;12.98;83.75
18201;BME280;9226;47.858;9.594;2023-05-02T06:38:44;95579.44;;;12.97;82.94
18201;BME280;9226;47.858;9.594;2023-05-02T06:41:13;95584.22;;;13.03;82.42
18201;BME280;9226;47.858;9.594;2023-05-02T06:43:39;95577.97;;;13.24;82.47
18201;BME280;9226;47.858;9.594;2023-05-02T06:46:05;95582.19;;;13.36;82.18
18201;BME280;9226;47.858;9.594;2023-05-02T06:48:30;95586.69;;;13.45;81.17
18201;BME280;9226;47.858;9.594;2023-05-02T06:50:58;95593.16;;;13.52;80.81
18201;BME280;9226;47.858;9.594;2023-05-02T06:53:24;95598.22;;;13.55;81.00
18201;BME280;9226;47.858;9.594;2023-05-02T06:55:50;95593.31;;;13.61;80.85
18201;BME280;9226;47.858;9.594;2023-05-02T06:58:16;95595.97;;;13.61;80.23
18201;BME280;9226;47.858;9.594;2023-05-02T07:00:41;95596.81;;;13.51;79.89
18201;BME280;9226;47.858;9.594;2023-05-02T07:03:06;95598.50;;;13.52;79.91
18201;BME280;9226;47.858;9.594;2023-05-02T07:05:32;95591.19;;;13.54;79.75
18201;BME280;9226;47.858;9.594;2023-05-02T07:07:57;95603.97;;;13.61;80.34
18201;BME280;9226;47.858;9.594;2023-05-02T07:10:23;95603.69;;;13.64;80.16
18201;BME280;9226;47.858;9.594;2023-05-02T07:12:49;95603.81;;;13.43;79.67
18201;BME280;9226;47.858;9.594;2023-05-02T07:15:14;95600.19;;;13.63;78.91
18201;BME280;9226;47.858;9.594;2023-05-02T07:17:40;95600.75;;;13.67;78.61
18201;BME280;9226;47.858;9.594;2023-05-02T07:20:09;95598.63;;;13.80;79.15
18201;BME280;9226;47.858;9.594;2023-05-02T07:22:34;95601.72;;;13.75;78.97
18201;BME280;9226;47.858;9.594;2023-05-02T07:25:01;95602.56;;;13.96;78.71
18201;BME280;9226;47.858;9.594;2023-05-02T07:27:26;95607.16;;;14.13;77.15
18201;BME280;9226;47.858;9.594;2023-05-02T07:29:52;95601.00;;;14.13;74.24
18201;BME280;9226;47.858;9.594;2023-05-02T07:32:19;95596.44;;;14.33;74.96
18201;BME280;9226;47.858;9.594;2023-05-02T07:34:45;95600.22;;;14.50;74.23
18201;BME280;9226;47.858;9.594;2023-05-02T07:37:11;95603.59;;;14.61;74.66
18201;BME280;9226;47.858;9.594;2023-05-02T07:39:36;95607.00;;;14.91;74.28
18201;BME280;9226;47.858;9.594;2023-05-02T07:42:01;95601.69;;;15.09;74.03
18201;BME280;9226;47.858;9.594;2023-05-02T07:44:27;95605.13;;;15.19;72.70
18201;BME280;9226;47.858;9.594;2023-05-02T07:46:53;95612.97;;;15.31;72.59
18201;BME280;9226;47.858;9.594;2023-05-02T07:49:18;95619.31;;;15.30;70.87
18201;BME280;9226;47.858;9.594;2023-05-02T07:51:44;95609.72;;;15.37;69.87
18201;BME280;9226;47.858;9.594;2023-05-02T07:54:20;95618.06;;;15.24;69.08
18201;BME280;9226;47.858;9.594;2023-05-02T07:56:46;95628.75;;;15.24;69.01
18201;BME280;9226;47.858;9.594;2023-05-02T07:59:12;95618.22;;;15.23;69.85
18201;BME280;9226;47.858;9.594;2023-05-02T08:01:38;95619.38;;;15.20;69.35
18201;BME280;9226;47.858;9.594;2023-05-02T08:04:04;95624.72;;;15.20;70.88
18201;BME280;9226;47.858;9.594;2023-05-02T08:06:29;95624.84;;;15.18;71.50
18201;BME280;9226;47.858;9.594;2023-05-02T08:08:56;95632.25;;;14.97;70.88
18201;BME280;9226;47.858;9.594;2023-05-02T08:11:22;95633.47;;;14.75;71.06
18201;BME280;9226;47.858;9.594;2023-05-02T08:13:50;95627.72;;;14.70;71.30
18201;BME280;9226;47.858;9.594;2023-05-02T08:16:15;95635.34;;;14.64;71.50
18201;BME280;9226;47.858;9.594;2023-05-02T08:18:40;95634.63;;;14.62;71.51
18201;BME280;9226;47.858;9.594;2023-05-02T08:21:06;95635.63;;;14.61;71.46
18201;BME280;9226;47.858;9.594;2023-05-02T08:23:31;95648.38;;;14.58;71.81
18201;BME280;9226;47.858;9.594;2023-05-02T08:25:57;95637.44;;;14.61;71.90
18201;BME280;9226;47.858;9.594;2023-05-02T08:28:22;95640.13;;;14.51;71.92
18201;BME280;9226;47.858;9.594;2023-05-02T08:30:47;95642.06;;;14.59;72.19
18201;BME280;9226;47.858;9.594;2023-05-02T08:33:13;95643.06;;;14.68;71.48
18201;BME280;9226;47.858;9.594;2023-05-02T08:35:38;95641.66;;;14.63;71.82
18201;BME280;9226;47.858;9.594;2023-05-02T08:38:04;95642.16;;;14.77;71.87
18201;BME280;9226;47.858;9.594;2023-05-02T08:40:34;95647.75;;;14.93;71.94
18201;BME280;9226;47.858;9.594;2023-05-02T08:43:00;95648.53;;;15.04;71.37
18201;BME280;9226;47.858;9.594;2023-05-02T08:45:29;95647.91;;;15.19;70.97
18201;BME280;9226;47.858;9.594;2023-05-02T08:47:56;95652.31;;;15.38;69.97
18201;BME280;9226;47.858;9.594;2023-05-02T08:50:23;95652.81;;;15.70;69.43
18201;BME280;9226;47.858;9.594;2023-05-02T08:52:49;95655.94;;;15.93;68.56
18201;BME280;9226;47.858;9.594;2023-05-02T08:55:16;95666.09;;;16.25;68.50
18201;BME280;9226;47.858;9.594;2023-05-02T08:57:42;95654.84;;;16.40;67.45
18201;BME280;9226;47.858;9.594;2023-05-02T09:00:08;95658.47;;;16.57;65.66
18201;BME280;9226;47.858;9.594;2023-05-02T09:05:54;95667.44;;;16.92;63.72
18201;BME280;9226;47.858;9.594;2023-05-02T09:08:24;95660.91;;;17.21;62.59
18201;BME280;9226;47.858;9.594;2023-05-02T09:10:49;95664.84;;;17.08;61.46
18201;BME280;9226;47.858;9.594;2023-05-02T09:16:13;95662.59;;;17.30;60.46
18201;BME280;9226;47.858;9.594;2023-05-02T09:18:40;95667.59;;;17.67;62.03
18201;BME280;9226;47.858;9.594;2023-05-02T09:21:10;95670.59;;;17.64;59.93
18201;BME280;9226;47.858;9.594;2023-05-02T09:26:11;95659.16;;;18.05;57.43
18201;BME280;9226;47.858;9.594;2023-05-02T09:28:50;95667.38;;;18.12;57.86
18201;BME280;9226;47.858;9.594;2023-05-02T09:31:27;95665.91;;;18.17;58.60
18201;BME280;9226;47.858;9.594;2023-05-02T09:34:08;95677.47;;;18.34;58.73
18201;BME280;9226;47.858;9.594;2023-05-02T09:36:39;95670.91;;;18.04;57.87
18201;BME280;9226;47.858;9.594;2023-05-02T09:41:41;95671.94;;;18.19;58.95
18201;BME280;9226;47.858;9.594;2023-05-02T09:44:11;95669.97;;;17.70;57.22
18201;BME280;9226;47.858;9.594;2023-05-02T09:46:42;95665.84;;;17.93;58.79
18201;BME280;9226;47.858;9.594;2023-05-02T09:49:07;95667.38;;;18.20;58.95
18201;BME280;9226;47.858;9.594;2023-05-02T09:51:34;95674.13;;;18.24;57.82
18201;BME280;9226;47.858;9.594;2023-05-02T09:54:00;95664.88;;;18.51;58.16
18201;BME280;9226;47.858;9.594;2023-05-02T09:56:25;95664.72;;;18.86;56.78
18201;BME280;9226;47.858;9.594;2023-05-02T09:58:51;95664.00;;;19.08;55.73
18201;BME280;9226;47.858;9.594;2023-05-02T10:01:17;95664.44;;;19.28;56.09
18201;BME280;9226;47.858;9.594;2023-05-02T10:03:47;95667.09;;;19.37;52.97
18201;BME280;9226;47.858;9.594;2023-05-02T10:06:14;95668.13;;;19.36;52.36
18201;BME280;9226;47.858;9.594;2023-05-02T10:08:40;95670.31;;;19.32;55.27
18201;BME280;9226;47.858;9.594;2023-05-02T10:11:07;95665.72;;;19.49;54.40
18201;BME280;9226;47.858;9.594;2023-05-02T10:13:33;95670.00;;;19.66;54.46
18201;BME280;9226;47.858;9.594;2023-05-02T10:16:04;95673.03;;;19.63;53.49
18201;BME280;9226;47.858;9.594;2023-05-02T10:18:43;95668.84;;;19.13;52.66
18201;BME280;9226;47.858;9.594;2023-05-02T10:21:15;95665.22;;;18.73;52.87
18201;BME280;9226;47.858;9.594;2023-05-02T10:23:42;95670.59;;;18.48;55.40
18201;BME280;9226;47.858;9.594;2023-05-02T10:26:15;95679.31;;;18.67;56.11
18201;BME280;9226;47.858;9.594;2023-05-02T10:28:41;95671.63;;;18.88;57.17
18201;BME280;9226;47.858;9.594;2023-05-02T10:31:09;95672.44;;;18.89;55.73
18201;BME280;9226;47.858;9.594;2023-05-02T10:33:37;95668.59;;;18.50;55.62
18201;BME280;9226;47.858;9.594;2023-05-02T10:36:03;95660.19;;;18.45;56.55
18201;BME280;9226;47.858;9.594;2023-05-02T10:38:28;95661.19;;;18.60;55.24
18201;BME280;9226;47.858;9.594;2023-05-02T10:41:00;95665.22;;;18.73;54.33
18201;BME280;9226;47.858;9.594;2023-05-02T10:43:31;95661.03;;;18.46;53.41
18201;BME280;9226;47.858;9.594;2023-05-02T10:45:58;95655.81;;;18.85;55.15
18201;BME280;9226;47.858;9.594;2023-05-02T10:48:24;95654.97;;;19.41;55.80
18201;BME280;9226;47.858;9.594;2023-05-02T10:50:59;95652.91;;;19.91;51.15
18201;BME280;9226;47.858;9.594;2023-05-02T10:53:36;95651.47;;;20.87;50.69
18201;BME280;9226;47.858;9.594;2023-05-02T10:56:17;95654.31;;;21.54;48.54
18201;BME280;9226;47.858;9.594;2023-05-02T10:58:46;95646.53;;;22.53;48.08
18201;BME280;9226;47.858;9.594;2023-05-02T11:04:06;95647.41;;;22.61;45.36
18201;BME280;9226;47.858;9.594;2023-05-02T11:06:35;95646.78;;;22.58;45.72
18201;BME280;9226;47.858;9.594;2023-05-02T11:11:45;95653.19;;;21.78;45.52
18201;BME280;9226;47.858;9.594;2023-05-02T11:20:31;95660.66;;;20.40;48.47
18201;BME280;9226;47.858;9.594;2023-05-02T11:22:37;95661.47;;;19.94;50.20
18201;BME280;9226;47.858;9.594;2023-05-02T11:25:04;95659.53;;;19.80;49.79
18201;BME280;9226;47.858;9.594;2023-05-02T11:29:57;95658.63;;;19.56;50.78
18201;BME280;9226;47.858;9.594;2023-05-02T11:32:24;95650.75;;;19.46;51.64
18201;BME280;9226;47.858;9.594;2023-05-02T11:34:51;95647.91;;;19.40;51.57
18201;BME280;9226;47.858;9.594;2023-05-02T11:37:19;95648.88;;;19.07;51.68
18201;BME280;9226;47.858;9.594;2023-05-02T11:39:45;95644.19;;;18.76;50.73
18201;BME280;9226;47.858;9.594;2023-05-02T11:42:30;95650.25;;;18.95;50.81
18201;BME280;9226;47.858;9.594;2023-05-02T11:44:57;95652.72;;;19.13;52.11
18201;BME280;9226;47.858;9.594;2023-05-02T11:47:24;95645.69;;;19.12;51.07
18201;BME280;9226;47.858;9.594;2023-05-02T11:49:50;95646.41;;;19.45;51.13
18201;BME280;9226;47.858;9.594;2023-05-02T11:52:15;95648.13;;;19.69;50.70
18201;BME280;9226;47.858;9.594;2023-05-02T11:54:41;95641.53;;;20.03;49.25
18201;BME280;9226;47.858;9.594;2023-05-02T11:57:06;95651.66;;;20.01;48.17
18201;BME280;9226;47.858;9.594;2023-05-02T11:59:51;95644.56;;;19.38;48.05
18201;BME280;9226;47.858;9.594;2023-05-02T12:02:18;95644.13;;;19.57;48.89
18201;BME280;9226;47.858;9.594;2023-05-02T12:04:44;95646.66;;;19.59;48.73
18201;BME280;9226;47.858;9.594;2023-05-02T12:07:10;95648.97;;;19.30;48.75
18201;BME280;9226;47.858;9.594;2023-05-02T12:09:35;95654.31;;;19.39;50.08
18201;BME280;9226;47.858;9.594;2023-05-02T12:12:13;95653.03;;;19.26;50.04
18201;BME280;9226;47.858;9.594;2023-05-02T12:14:43;95649.31;;;19.27;50.07
18201;BME280;9226;47.858;9.594;2023-05-02T12:17:09;95649.66;;;19.24;49.56
18201;BME280;9226;47.858;9.594;2023-05-02T12:19:34;95656.16;;;18.74;49.82
18201;BME280;9226;47.858;9.594;2023-05-02T12:22:02;95656.13;;;18.66;49.79
18201;BME280;9226;47.858;9.594;2023-05-02T12:24:27;95651.13;;;18.54;50.91
18201;BME280;9226;47.858;9.594;2023-05-02T12:27:13;95661.88;;;18.30;50.97
18201;BME280;9226;47.858;9.594;2023-05-02T12:29:39;95651.13;;;18.38;51.59
18201;BME280;9226;47.858;9.594;2023-05-02T12:32:05;95657.50;;;18.29;51.92
18201;BME280;9226;47.858;9.594;2023-05-02T12:34:34;95653.47;;;18.16;52.55
18201;BME280;9226;47.858;9.594;2023-05-02T12:37:00;95654.50;;;18.23;52.41
18201;BME280;9226;47.858;9.594;2023-05-02T12:39:42;95654.50;;;18.32;53.01
18201;BME280;9226;47.858;9.594;2023-05-02T12:42:15;95648.59;;;18.20;53.19
18201;BME280;9226;47.858;9.594;2023-05-02T12:44:42;95643.56;;;18.41;55.28
18201;BME280;9226;47.858;9.594;2023-05-02T12:47:12;95647.25;;;18.24;55.83
18201;BME280;9226;47.858;9.594;2023-05-02T12:49:56;95644.09;;;18.20;56.06
18201;BME280;9226;47.858;9.594;2023-05-02T12:52:45;95651.13;;;18.30;57.02
18201;BME280;9226;47.858;9.594;2023-05-02T12:55:19;95652.09;;;18.04;55.12
18201;BME280;9226;47.858;9.594;2023-05-02T12:57:45;95648.91;;;17.92;55.00
18201;BME280;9226;47.858;9.594;2023-05-02T13:00:11;95656.91;;;17.33;56.11
18201;BME280;9226;47.858;9.594;2023-05-02T13:02:37;95660.75;;;16.96;57.08
18201;BME280;9226;47.858;9.594;2023-05-02T13:05:16;95675.72;;;16.80;57.26
18201;BME280;9226;47.858;9.594;2023-05-02T13:07:42;95668.75;;;16.88;58.02
18201;BME280;9226;47.858;9.594;2023-05-02T13:10:08;95671.06;;;16.82;57.83
18201;BME280;9226;47.858;9.594;2023-05-02T13:12:35;95671.84;;;16.57;58.45
18201;BME280;9226;47.858;9.594;2023-05-02T13:15:06;95668.25;;;16.40;59.90
18201;BME280;9226;47.858;9.594;2023-05-02T13:17:33;95676.97;;;15.88;61.01
18201;BME280;9226;47.858;9.594;2023-05-02T13:19:58;95674.13;;;15.44;61.15
18201;BME280;9226;47.858;9.594;2023-05-02T13:22:24;95668.94;;;15.05;62.11
18201;BME280;9226;47.858;9.594;2023-05-02T13:24:51;95667.72;;;14.89;64.27
18201;BME280;9226;47.858;9.594;2023-05-02T13:27:17;95669.72;;;14.87;64.45
18201;BME280;9226;47.858;9.594;2023-05-02T13:29:43;95662.19;;;14.63;66.26
18201;BME280;9226;47.858;9.594;2023-05-02T13:32:09;95663.03;;;14.63;67.58
18201;BME280;9226;47.858;9.594;2023-05-02T13:34:35;95665.16;;;14.60;68.36
18201;BME280;9226;47.858;9.594;2023-05-02T13:37:01;95660.22;;;14.55;69.38
18201;BME280;9226;47.858;9.594;2023-05-02T13:39:26;95657.69;;;14.63;67.70
18201;BME280;9226;47.858;9.594;2023-05-02T13:41:52;95653.69;;;14.87;67.82
18201;BME280;9226;47.858;9.594;2023-05-02T13:44:17;95663.38;;;14.88;68.47
18201;BME280;9226;47.858;9.594;2023-05-02T13:46:43;95650.72;;;15.18;67.44
18201;BME280;9226;47.858;9.594;2023-05-02T13:49:08;95646.69;;;15.14;67.13
18201;BME280;9226;47.858;9.594;2023-05-02T13:51:34;95648.94;;;15.36;66.79
18201;BME280;9226;47.858;9.594;2023-05-02T13:54:00;95650.94;;;15.34;66.97
18201;BME280;9226;47.858;9.594;2023-05-02T13:56:25;95645.66;;;15.25;66.63